createdAt,value
2022-11-15T00:01:25.059Z,7.70
2022-11-15T00:04:11.221Z,6.55
2022-11-15T00:06:56.530Z,6.97
2022-11-15T00:09:45.842Z,7.20
2022-11-15T00:12:31.729Z,6.30
2022-11-15T00:15:16.830Z,8.43
2022-11-15T00:18:01.996Z,7.53
2022-11-15T00:20:47.162Z,7.25
2022-11-15T00:23:33.085Z,5.55
2022-11-15T00:26:19.199Z,4.32
2022-11-15T00:29:04.221Z,5.25
2022-11-15T00:31:49.749Z,7.55
2022-11-15T00:34:35.105Z,6.60
2022-11-15T00:37:20.513Z,8.05
2022-11-15T00:40:06.291Z,8.38
2022-11-15T00:42:51.758Z,8.70
2022-11-15T00:45:37.056Z,8.25
2022-11-15T00:48:22.620Z,9.40
2022-11-15T00:51:07.786Z,7.20
2022-11-15T00:53:53.067Z,7.07
2022-11-15T00:56:38.393Z,6.85
2022-11-15T00:59:23.881Z,7.43
2022-11-15T01:02:09.134Z,6.50
2022-11-15T01:04:54.691Z,6.80
2022-11-15T01:07:40.127Z,7.53
2022-11-15T01:10:26.780Z,9.38
2022-11-15T01:13:12.241Z,8.43
2022-11-15T01:15:57.312Z,7.15
2022-11-15T01:18:42.697Z,7.97
2022-11-15T01:21:28.150Z,9.48
2022-11-15T01:24:13.637Z,7.88
2022-11-15T01:26:58.894Z,8.30
2022-11-15T01:29:44.439Z,9.07
2022-11-15T01:32:29.641Z,12.63
2022-11-15T01:35:14.815Z,8.80
2022-11-15T01:37:59.936Z,6.20
2022-11-15T01:40:45.370Z,6.30
2022-11-15T01:43:30.787Z,7.68
2022-11-15T01:46:28.177Z,7.68
2022-11-15T01:49:15.349Z,6.60
2022-11-15T01:52:01.745Z,7.25
2022-11-15T01:54:47.665Z,6.25
2022-11-15T01:57:32.894Z,6.35
2022-11-15T02:00:22.912Z,6.20
2022-11-15T02:03:08.362Z,7.07
2022-11-15T02:05:54.194Z,6.22
2022-11-15T02:08:39.597Z,5.20
2022-11-15T02:11:25.913Z,5.55
2022-11-15T02:14:12.612Z,5.85
2022-11-15T02:17:01.172Z,6.95
2022-11-15T02:20:01.300Z,6.22
2022-11-15T02:23:05.157Z,6.68
2022-11-15T02:26:10.428Z,7.47
2022-11-15T02:28:55.742Z,7.13
2022-11-15T02:31:50.059Z,7.10
2022-11-15T02:34:58.134Z,5.93
2022-11-15T02:37:59.854Z,6.95
2022-11-15T02:41:05.814Z,6.78
2022-11-15T02:43:57.861Z,8.60
2022-11-15T02:47:03.433Z,6.63
2022-11-15T02:49:54.102Z,6.45
2022-11-15T02:52:39.487Z,7.18
2022-11-15T02:55:29.271Z,6.55
2022-11-15T02:58:33.950Z,7.50
2022-11-15T03:01:34.787Z,7.65
2022-11-15T03:04:40.118Z,6.95
2022-11-15T03:07:31.480Z,6.50
2022-11-15T03:10:35.444Z,7.85
2022-11-15T03:13:58.916Z,6.38
2022-11-15T03:16:44.350Z,7.03
2022-11-15T03:19:32.667Z,7.15
2022-11-15T03:22:19.682Z,7.28
2022-11-15T03:25:07.783Z,7.05
2022-11-15T03:27:54.602Z,7.40
2022-11-15T03:30:40.923Z,7.13
2022-11-15T03:33:26.790Z,6.97
2022-11-15T03:36:12.359Z,6.57
2022-11-15T03:38:59.601Z,6.70
2022-11-15T03:41:48.724Z,6.70
2022-11-15T03:44:49.197Z,6.72
2022-11-15T03:47:37.358Z,6.35
2022-11-15T03:50:23.743Z,6.13
2022-11-15T03:53:08.852Z,6.47
2022-11-15T03:55:53.910Z,6.40
2022-11-15T03:58:39.272Z,6.13
2022-11-15T04:01:24.915Z,5.88
2022-11-15T04:04:10.414Z,5.88
2022-11-15T04:06:55.505Z,7.32
2022-11-15T04:09:59.161Z,6.55
2022-11-15T04:12:47.310Z,6.07
2022-11-15T04:15:33.090Z,5.57
2022-11-15T04:18:18.689Z,4.93
2022-11-15T04:21:22.329Z,4.22
2022-11-15T04:24:13.544Z,4.88
2022-11-15T04:26:58.847Z,4.45
2022-11-15T04:29:44.083Z,5.15
2022-11-15T04:32:29.500Z,7.30
2022-11-15T04:35:14.951Z,6.55
2022-11-15T04:38:00.277Z,5.00
2022-11-15T04:40:45.327Z,4.30
2022-11-15T04:43:30.917Z,4.18
2022-11-15T04:46:16.430Z,4.22
2022-11-15T04:49:01.700Z,5.03
2022-11-15T04:51:47.171Z,4.53
2022-11-15T04:54:32.783Z,5.30
2022-11-15T04:57:17.911Z,5.80
2022-11-15T05:00:07.002Z,5.30
2022-11-15T05:03:10.989Z,6.28
2022-11-15T05:05:56.313Z,6.47
2022-11-15T05:08:41.849Z,6.32
2022-11-15T05:11:28.324Z,6.05
2022-11-15T05:14:13.675Z,7.03
2022-11-15T05:16:58.936Z,6.70
2022-11-15T05:19:45.610Z,8.75
2022-11-15T05:22:31.018Z,9.30
2022-11-15T05:25:16.299Z,8.25
2022-11-15T05:28:01.332Z,8.18
2022-11-15T05:30:46.882Z,9.30
2022-11-15T05:33:33.022Z,9.73
2022-11-15T05:36:30.933Z,9.88
2022-11-15T05:39:16.476Z,9.60
2022-11-15T05:42:06.054Z,9.40
2022-11-15T05:44:51.669Z,13.90
2022-11-15T05:47:38.688Z,15.82
2022-11-15T05:50:24.071Z,14.65
2022-11-15T05:53:09.219Z,11.30
2022-11-15T05:55:54.404Z,10.85
2022-11-15T05:58:39.630Z,10.50
2022-11-15T06:01:29.009Z,9.35
2022-11-15T06:04:14.295Z,9.10
2022-11-15T06:07:00.046Z,7.72
2022-11-15T06:09:45.641Z,7.80
2022-11-15T06:12:30.981Z,7.30
2022-11-15T06:15:16.435Z,7.63
2022-11-15T06:18:01.642Z,10.43
2022-11-15T06:20:46.680Z,10.00
2022-11-15T06:23:35.844Z,8.25
2022-11-15T06:26:20.986Z,8.57
2022-11-15T06:29:06.443Z,7.40
2022-11-15T06:31:51.777Z,9.00
2022-11-15T06:34:37.254Z,9.48
2022-11-15T06:37:22.518Z,9.63
2022-11-15T06:40:08.614Z,10.48
2022-11-15T06:42:58.384Z,8.32
2022-11-15T06:45:43.749Z,7.93
2022-11-15T06:48:29.788Z,8.57
2022-11-15T06:51:14.909Z,10.05
2022-11-15T06:54:00.056Z,9.25
2022-11-15T06:56:45.545Z,9.52
2022-11-15T06:59:30.999Z,8.50
2022-11-15T07:02:16.339Z,8.68
2022-11-15T07:05:01.482Z,9.75
2022-11-15T07:07:52.227Z,8.52
2022-11-15T07:10:37.573Z,9.00
2022-11-15T07:13:25.568Z,9.23
2022-11-15T07:16:11.379Z,10.07
2022-11-15T07:18:56.799Z,10.05
2022-11-15T07:21:41.971Z,9.95
2022-11-15T07:24:27.305Z,9.23
2022-11-15T07:27:12.541Z,8.02
2022-11-15T07:29:58.320Z,8.15
2022-11-15T07:32:43.689Z,8.10
2022-11-15T07:35:29.782Z,8.93
2022-11-15T07:38:15.970Z,7.85
2022-11-15T07:41:03.617Z,8.23
2022-11-15T07:43:52.069Z,8.77
2022-11-15T07:46:37.539Z,8.18
2022-11-15T07:49:22.805Z,8.38
2022-11-15T07:52:08.213Z,8.25
2022-11-15T07:54:53.314Z,7.97
2022-11-15T07:57:38.870Z,8.35
2022-11-15T08:00:24.051Z,8.98
2022-11-15T08:03:11.278Z,9.00
2022-11-15T08:05:56.424Z,8.68
2022-11-15T08:08:41.799Z,9.13
2022-11-15T08:11:26.855Z,8.98
2022-11-15T08:14:12.232Z,8.30
2022-11-15T08:16:57.625Z,9.07
2022-11-15T08:19:42.876Z,9.18
2022-11-15T08:22:28.150Z,9.30
2022-11-15T08:25:13.943Z,8.38
2022-11-15T08:28:00.767Z,8.50
2022-11-15T08:30:46.606Z,8.57
2022-11-15T08:33:33.821Z,8.65
2022-11-15T08:36:19.280Z,8.80
2022-11-15T08:39:04.534Z,7.72
2022-11-15T08:41:49.871Z,9.07
2022-11-15T08:44:35.255Z,8.43
2022-11-15T08:47:20.562Z,8.93
2022-11-15T08:50:06.328Z,7.72
2022-11-15T08:52:51.878Z,8.32
2022-11-15T08:55:37.616Z,7.28
2022-11-15T08:58:22.903Z,8.18
2022-11-15T09:01:18.346Z,8.45
2022-11-15T09:04:04.941Z,8.05
2022-11-15T09:06:50.320Z,8.15
2022-11-15T09:09:35.850Z,8.40
2022-11-15T09:12:21.072Z,7.55
2022-11-15T09:15:07.291Z,8.23
2022-11-15T09:17:52.564Z,8.30
2022-11-15T09:20:38.058Z,8.60
2022-11-15T09:23:23.715Z,8.32
2022-11-15T09:26:09.169Z,8.40
2022-11-15T09:28:54.354Z,9.15
2022-11-15T09:31:39.830Z,8.07
2022-11-15T09:34:25.279Z,7.95
2022-11-15T09:37:10.675Z,7.72
2022-11-15T09:39:56.078Z,8.55
2022-11-15T09:42:59.434Z,8.32
2022-11-15T09:45:53.860Z,9.30
2022-11-15T09:48:46.180Z,10.00
2022-11-15T09:51:48.802Z,9.60
2022-11-15T09:57:23.725Z,8.85
2022-11-15T09:59:50.509Z,9.02
2022-11-15T10:02:36.272Z,9.48
2022-11-15T10:05:03.212Z,10.30
2022-11-15T10:07:40.625Z,10.02
2022-11-15T10:10:15.724Z,9.75
2022-11-15T10:12:47.537Z,11.18
2022-11-15T10:15:15.904Z,10.63
2022-11-15T10:18:06.985Z,10.20
2022-11-15T10:20:42.881Z,11.07
2022-11-15T10:23:12.572Z,10.90
2022-11-15T10:25:39.464Z,10.15
2022-11-15T10:28:15.391Z,9.95
2022-11-15T10:30:43.805Z,9.90
2022-11-15T10:33:23.846Z,10.80
2022-11-15T10:36:13.453Z,11.20
2022-11-15T10:38:49.237Z,11.05
2022-11-15T10:41:19.228Z,10.68
2022-11-15T10:43:46.832Z,10.75
2022-11-15T10:46:45.583Z,10.93
2022-11-15T10:49:17.051Z,11.18
2022-11-15T10:51:54.875Z,10.60
2022-11-15T10:54:24.497Z,10.85
2022-11-15T10:56:55.794Z,10.18
2022-11-15T10:59:32.650Z,11.43
2022-11-15T11:02:01.788Z,11.68
2022-11-15T11:04:28.542Z,10.93
2022-11-15T11:06:56.699Z,10.63
2022-11-15T11:09:23.538Z,11.38
2022-11-15T11:11:51.312Z,11.05
2022-11-15T11:14:34.848Z,11.10
2022-11-15T11:17:17.023Z,12.13
2022-11-15T11:19:59.354Z,10.80
2022-11-15T11:22:36.290Z,10.38
2022-11-15T11:25:06.424Z,11.25
2022-11-15T11:27:52.190Z,11.35
2022-11-15T11:30:24.090Z,11.80
2022-11-15T11:33:09.429Z,11.73
2022-11-15T11:35:52.608Z,11.38
2022-11-15T11:38:19.370Z,11.38
2022-11-15T11:40:55.072Z,10.32
2022-11-15T11:43:27.578Z,11.07
2022-11-15T11:46:14.112Z,11.75
2022-11-15T11:48:53.782Z,10.82
2022-11-15T11:51:34.290Z,11.20
2022-11-15T11:54:11.230Z,11.95
2022-11-15T11:56:40.224Z,11.10
2022-11-15T11:59:11.115Z,11.63
2022-11-15T12:01:42.269Z,11.98
2022-11-15T12:04:19.200Z,11.35
2022-11-15T12:06:54.451Z,11.07
2022-11-15T12:09:31.135Z,11.05
2022-11-15T12:12:05.703Z,10.95
2022-11-15T12:14:32.499Z,11.25
2022-11-15T12:16:59.904Z,11.48
2022-11-15T12:19:26.982Z,11.07
2022-11-15T12:22:10.408Z,11.48
2022-11-15T12:24:42.575Z,11.43
2022-11-15T12:27:26.339Z,11.32
2022-11-15T12:29:58.635Z,10.32
2022-11-15T12:32:27.817Z,11.18
2022-11-15T12:34:55.071Z,11.57
2022-11-15T12:37:38.622Z,11.55
2022-11-15T12:40:08.194Z,11.25
2022-11-15T12:42:58.092Z,10.57
2022-11-15T12:45:33.369Z,10.23
2022-11-15T12:48:20.454Z,10.73
2022-11-15T12:50:54.667Z,11.90
2022-11-15T12:53:24.849Z,12.48
2022-11-15T12:56:11.920Z,11.48
2022-11-15T12:58:55.402Z,11.15
2022-11-15T13:01:31.640Z,11.07
2022-11-15T13:04:17.363Z,11.73
2022-11-15T13:06:45.780Z,11.93
2022-11-15T13:09:31.466Z,11.32
2022-11-15T13:11:58.935Z,12.60
2022-11-15T13:14:51.877Z,11.63
2022-11-15T13:17:31.005Z,11.52
2022-11-15T13:20:24.156Z,12.52
2022-11-15T13:22:52.772Z,13.73
2022-11-15T13:25:22.559Z,11.82
2022-11-15T13:27:50.239Z,11.25
2022-11-15T13:30:20.798Z,12.48
2022-11-15T13:32:47.992Z,11.77
2022-11-15T13:35:25.015Z,11.70
2022-11-15T13:37:51.932Z,11.43
2022-11-15T13:40:18.894Z,11.07
2022-11-15T13:42:46.051Z,11.35
2022-11-15T13:45:17.428Z,11.32
2022-11-15T13:47:44.253Z,11.40
2022-11-15T13:50:12.634Z,11.38
2022-11-15T13:52:41.602Z,11.35
2022-11-15T13:55:14.333Z,10.93
2022-11-15T13:57:49.291Z,10.93
2022-11-15T14:00:44.235Z,10.68
2022-11-15T14:03:22.070Z,9.88
2022-11-15T14:06:08.187Z,10.90
2022-11-15T14:08:36.149Z,10.48
2022-11-15T14:11:07.808Z,9.60
2022-11-15T14:13:35.071Z,10.70
2022-11-15T14:16:14.214Z,10.35
2022-11-15T14:18:46.060Z,9.85
2022-11-15T14:21:12.933Z,9.73
2022-11-15T14:23:39.774Z,9.68
2022-11-15T14:26:11.855Z,11.05
2022-11-15T14:28:41.973Z,9.65
2022-11-15T14:31:12.828Z,10.25
2022-11-15T14:33:40.203Z,10.45
2022-11-15T14:36:27.230Z,11.02
2022-11-15T14:38:55.258Z,11.30
2022-11-15T14:41:23.368Z,10.73
2022-11-15T14:43:50.728Z,10.73
2022-11-15T14:46:17.649Z,11.40
2022-11-15T14:48:44.722Z,12.45
2022-11-15T14:51:15.785Z,12.55
2022-11-15T14:53:42.929Z,12.55
2022-11-15T14:56:10.764Z,12.52
2022-11-15T14:58:37.546Z,12.20
2022-11-15T15:01:11.846Z,12.55
2022-11-15T15:03:38.713Z,11.77
2022-11-15T15:06:05.697Z,12.00
2022-11-15T15:08:32.926Z,11.60
2022-11-15T15:10:59.972Z,12.07
2022-11-15T15:13:26.972Z,11.70
2022-11-15T15:15:53.810Z,11.88
2022-11-15T15:18:28.719Z,12.13
2022-11-15T15:20:58.392Z,12.27
2022-11-15T15:23:26.566Z,12.63
2022-11-15T15:25:54.149Z,12.20
2022-11-15T15:28:21.015Z,12.13
2022-11-15T15:30:47.823Z,11.95
2022-11-15T15:33:14.620Z,11.23
2022-11-15T15:35:41.687Z,13.75
2022-11-15T15:38:16.366Z,11.95
2022-11-15T15:40:43.153Z,12.48
2022-11-15T15:43:10.265Z,10.77
2022-11-15T15:45:38.405Z,11.38
2022-11-15T15:48:05.590Z,11.10
2022-11-15T15:50:35.800Z,11.63
2022-11-15T15:53:03.586Z,11.68
2022-11-15T15:55:31.002Z,12.10
2022-11-15T15:57:58.210Z,12.10
2022-11-15T16:00:25.987Z,11.98
2022-11-15T16:02:53.278Z,11.65
2022-11-15T16:05:20.421Z,11.50
2022-11-15T16:07:48.259Z,11.15
2022-11-15T16:10:28.680Z,11.00
2022-11-15T16:12:56.424Z,11.30
2022-11-15T16:15:23.927Z,11.05
2022-11-15T16:17:52.451Z,11.25
2022-11-15T16:20:25.396Z,11.68
2022-11-15T16:22:52.203Z,10.52
2022-11-15T16:25:18.997Z,10.65
2022-11-15T16:27:47.182Z,10.80
2022-11-15T16:30:18.179Z,11.10
2022-11-15T16:32:45.192Z,10.90
2022-11-15T16:35:13.507Z,11.45
2022-11-15T16:37:44.938Z,10.68
2022-11-15T16:40:11.764Z,11.35
2022-11-15T16:42:38.589Z,11.65
2022-11-15T16:45:05.635Z,11.80
2022-11-15T16:47:32.410Z,11.45
2022-11-15T16:49:59.173Z,12.60
2022-11-15T16:52:26.024Z,11.07
2022-11-15T16:54:52.775Z,12.05
2022-11-15T16:57:19.573Z,10.88
2022-11-15T16:59:46.463Z,11.27
2022-11-15T17:02:13.582Z,12.18
2022-11-15T17:04:40.774Z,10.50
2022-11-15T17:07:08.637Z,9.98
2022-11-15T17:09:35.506Z,9.95
2022-11-15T17:12:02.298Z,11.75
2022-11-15T17:14:29.490Z,10.80
2022-11-15T17:16:56.365Z,10.82
2022-11-15T17:19:23.121Z,10.82
2022-11-15T17:21:49.911Z,10.68
2022-11-15T17:24:17.294Z,10.27
2022-11-15T17:26:44.306Z,10.32
2022-11-15T17:29:11.289Z,10.23
2022-11-15T17:31:38.443Z,9.80
2022-11-15T17:34:05.777Z,9.55
2022-11-15T17:36:32.566Z,10.15
2022-11-15T17:39:00.107Z,9.85
2022-11-15T17:41:28.048Z,9.57
2022-11-15T17:43:58.699Z,10.13
2022-11-15T17:46:26.260Z,9.80
2022-11-15T17:48:53.006Z,10.30
2022-11-15T17:51:19.851Z,10.38
2022-11-15T17:53:47.437Z,16.88
2022-11-15T17:56:15.335Z,11.32
2022-11-15T17:58:42.482Z,10.13
2022-11-15T18:01:19.681Z,9.55
2022-11-15T18:03:46.982Z,9.80
2022-11-15T18:06:14.655Z,10.18
2022-11-15T18:08:43.309Z,9.85
2022-11-15T18:11:12.891Z,9.02
2022-11-15T18:13:40.252Z,9.52
2022-11-15T18:16:08.805Z,9.73
2022-11-15T18:18:36.274Z,9.27
2022-11-15T18:21:07.509Z,9.45
2022-11-15T18:23:35.050Z,9.10
2022-11-15T18:26:02.751Z,8.65
2022-11-15T18:28:31.969Z,8.70
2022-11-15T18:30:59.450Z,8.65
2022-11-15T18:33:26.983Z,10.07
2022-11-15T18:36:04.196Z,11.13
2022-11-15T18:38:31.204Z,11.13
2022-11-15T18:40:59.647Z,11.20
2022-11-15T18:43:26.631Z,11.23
2022-11-15T18:45:53.577Z,11.35
2022-11-15T18:48:20.347Z,10.73
2022-11-15T18:50:47.304Z,9.40
2022-11-15T18:53:14.152Z,10.75
2022-11-15T18:55:41.001Z,8.85
2022-11-15T18:58:07.875Z,8.45
2022-11-15T19:00:34.710Z,9.35
2022-11-15T19:03:01.563Z,10.18
2022-11-15T19:05:28.494Z,8.85
2022-11-15T19:07:55.310Z,7.97
2022-11-15T19:10:22.140Z,7.68
2022-11-15T19:12:49.357Z,8.45
2022-11-15T19:15:16.197Z,8.70
2022-11-15T19:17:43.112Z,8.90
2022-11-15T19:20:10.072Z,10.20
2022-11-15T19:22:36.891Z,10.00
2022-11-15T19:25:05.594Z,9.93
2022-11-15T19:27:37.010Z,11.15
2022-11-15T19:30:05.188Z,10.10
2022-11-15T19:32:32.007Z,9.80
2022-11-15T19:34:58.830Z,9.13
2022-11-15T19:37:25.674Z,9.05
2022-11-15T19:39:52.463Z,8.52
2022-11-15T19:42:19.227Z,8.52
2022-11-15T19:44:46.012Z,10.05
2022-11-15T19:47:12.855Z,11.10
2022-11-15T19:49:39.810Z,10.90
2022-11-15T19:52:06.784Z,14.15
2022-11-15T19:54:33.671Z,13.82
2022-11-15T19:57:00.491Z,14.40
2022-11-15T19:59:27.278Z,14.13
2022-11-15T20:01:54.144Z,14.65
2022-11-15T20:04:21.073Z,17.90
2022-11-15T20:06:48.003Z,12.32
2022-11-15T20:09:15.622Z,10.25
2022-11-15T20:11:42.780Z,10.57
2022-11-15T20:14:11.641Z,10.30
2022-11-15T20:16:38.968Z,11.43
2022-11-15T20:19:05.843Z,10.65
2022-11-15T20:21:32.691Z,10.90
2022-11-15T20:23:59.560Z,9.93
2022-11-15T20:26:26.483Z,10.98
2022-11-15T20:28:53.323Z,10.57
2022-11-15T20:31:20.393Z,10.07
2022-11-15T20:33:47.212Z,10.25
2022-11-15T20:36:15.525Z,9.98
2022-11-15T20:38:43.370Z,9.80
2022-11-15T20:41:10.784Z,9.27
2022-11-15T20:43:37.690Z,9.20
2022-11-15T20:46:04.641Z,9.05
2022-11-15T20:48:31.908Z,8.50
2022-11-15T20:51:06.654Z,8.60
2022-11-15T20:53:33.558Z,8.65
2022-11-15T20:56:03.255Z,8.43
2022-11-15T20:58:30.731Z,9.40
2022-11-15T21:00:57.815Z,9.30
2022-11-15T21:03:24.764Z,9.07
2022-11-15T21:05:52.727Z,8.98
2022-11-15T21:08:19.505Z,9.45
2022-11-15T21:11:07.849Z,9.32
2022-11-15T21:13:34.779Z,9.38
2022-11-15T21:16:03.072Z,9.35
2022-11-15T21:18:30.792Z,9.98
2022-11-15T21:21:06.639Z,9.75
2022-11-15T21:23:33.570Z,8.80
2022-11-15T21:26:02.997Z,9.65
2022-11-15T21:28:29.829Z,9.70
2022-11-15T21:30:58.493Z,10.02
2022-11-15T21:33:27.598Z,9.90
2022-11-15T21:35:55.073Z,10.38
2022-11-15T21:38:23.722Z,10.20
2022-11-15T21:40:51.171Z,11.40
2022-11-15T21:43:18.344Z,11.80
2022-11-15T21:45:54.975Z,11.30
2022-11-15T21:48:21.814Z,11.13
2022-11-15T21:50:58.463Z,11.18
2022-11-15T21:53:26.018Z,11.02
2022-11-15T21:55:53.016Z,12.18
2022-11-15T21:58:20.446Z,11.38
2022-11-15T22:01:05.725Z,11.27
2022-11-15T22:03:32.483Z,11.13
2022-11-15T22:05:59.317Z,11.73
2022-11-15T22:08:26.124Z,10.90
2022-11-15T22:10:53.135Z,11.63
2022-11-15T22:13:19.852Z,10.00
2022-11-15T22:15:46.756Z,10.68
2022-11-15T22:18:13.836Z,9.88
2022-11-15T22:20:45.116Z,9.55
2022-11-15T22:23:12.143Z,9.93
2022-11-15T22:25:38.821Z,9.15
2022-11-15T22:28:05.454Z,9.25
2022-11-15T22:30:32.109Z,9.23
2022-11-15T22:32:58.819Z,9.52
2022-11-15T22:35:25.466Z,9.65
2022-11-15T22:37:52.825Z,9.68
2022-11-15T22:40:19.598Z,9.93
2022-11-15T22:42:46.202Z,8.40
2022-11-15T22:45:12.859Z,8.38
2022-11-15T22:47:39.482Z,8.90
2022-11-15T22:50:06.536Z,8.95
2022-11-15T22:52:33.315Z,8.75
2022-11-15T22:54:59.889Z,8.95
2022-11-15T22:57:26.542Z,8.40
2022-11-15T22:59:53.133Z,8.38
2022-11-15T23:02:19.825Z,8.55
2022-11-15T23:04:46.511Z,8.25
2022-11-15T23:07:13.277Z,7.90
2022-11-15T23:09:40.253Z,8.13
2022-11-15T23:12:25.471Z,7.93
2022-11-15T23:14:52.059Z,8.93
2022-11-15T23:17:18.707Z,8.00
2022-11-15T23:19:45.294Z,8.05
2022-11-15T23:22:30.333Z,8.10
2022-11-15T23:24:58.426Z,7.70
2022-11-15T23:27:25.425Z,8.07
2022-11-15T23:30:10.619Z,8.48
2022-11-15T23:32:55.967Z,7.72
2022-11-15T23:35:22.696Z,7.03
2022-11-15T23:37:49.317Z,7.30
2022-11-15T23:40:16.057Z,7.05
2022-11-15T23:42:42.734Z,7.85
2022-11-15T23:45:09.460Z,8.02
2022-11-15T23:47:36.026Z,7.70
2022-11-15T23:50:02.723Z,7.55
2022-11-15T23:52:29.432Z,7.70
2022-11-15T23:54:56.160Z,7.78
2022-11-15T23:57:23.274Z,7.57
2022-11-15T23:59:49.884Z,7.88
